sensor_id;sensor_type;location;lat;lon;timestamp;temperature;humidity
20726;DHT22;10524;48.132;8.518;2023-02-24T00:02:23;0.10;99.90
20726;DHT22;10524;48.132;8.518;2023-02-24T00:04:48;0.00;99.90
20726;DHT22;10524;48.132;8.518;2023-02-24T00:07:16;0.00;99.90
20726;DHT22;10524;48.132;8.518;2023-02-24T00:09:42;-0.10;99.90
20726;DHT22;10524;48.132;8.518;2023-02-24T00:12:13;-0.20;99.90
20726;DHT22;10524;48.132;8.518;2023-02-24T00:14:43;-0.20;99.90
20726;DHT22;10524;48.132;8.518;2023-02-24T00:17:10;-0.30;99.90
20726;DHT22;10524;48.132;8.518;2023-02-24T00:19:38;-0.30;99.90
20726;DHT22;10524;48.132;8.518;2023-02-24T00:22:06;-0.10;99.90
20726;DHT22;10524;48.132;8.518;2023-02-24T00:24:32;0.00;99.90
20726;DHT22;10524;48.132;8.518;2023-02-24T00:27:00;0.00;99.90
20726;DHT22;10524;48.132;8.518;2023-02-24T00:29:27;0.00;99.90
20726;DHT22;10524;48.132;8.518;2023-02-24T00:31:55;0.10;99.90
20726;DHT22;10524;48.132;8.518;2023-02-24T00:34:35;0.10;99.90
20726;DHT22;10524;48.132;8.518;2023-02-24T00:37:01;0.20;99.90
20726;DHT22;10524;48.132;8.518;2023-02-24T00:39:28;0.20;99.90
20726;DHT22;10524;48.132;8.518;2023-02-24T00:42:00;0.30;99.90
20726;DHT22;10524;48.132;8.518;2023-02-24T00:44:35;0.30;99.90
20726;DHT22;10524;48.132;8.518;2023-02-24T00:47:02;0.40;99.90
20726;DHT22;10524;48.132;8.518;2023-02-24T00:49:29;0.40;99.90
20726;DHT22;10524;48.132;8.518;2023-02-24T00:51:55;0.40;99.90
20726;DHT22;10524;48.132;8.518;2023-02-24T00:54:22;0.40;99.90
20726;DHT22;10524;48.132;8.518;2023-02-24T00:56:51;0.40;99.90
20726;DHT22;10524;48.132;8.518;2023-02-24T00:59:17;0.30;99.90
20726;DHT22;10524;48.132;8.518;2023-02-24T01:01:43;0.30;99.90
20726;DHT22;10524;48.132;8.518;2023-02-24T01:04:11;0.20;99.90
20726;DHT22;10524;48.132;8.518;2023-02-24T01:06:45;0.20;99.90
20726;DHT22;10524;48.132;8.518;2023-02-24T01:09:14;0.20;99.90
20726;DHT22;10524;48.132;8.518;2023-02-24T01:11:42;0.20;99.90
20726;DHT22;10524;48.132;8.518;2023-02-24T01:14:47;0.10;99.90
20726;DHT22;10524;48.132;8.518;2023-02-24T01:17:15;0.20;99.90
20726;DHT22;10524;48.132;8.518;2023-02-24T01:19:41;0.10;99.90
20726;DHT22;10524;48.132;8.518;2023-02-24T01:22:10;0.10;99.90
20726;DHT22;10524;48.132;8.518;2023-02-24T01:24:40;-0.10;99.90
20726;DHT22;10524;48.132;8.518;2023-02-24T01:27:06;-0.30;99.90
20726;DHT22;10524;48.132;8.518;2023-02-24T01:29:32;-0.30;99.90
20726;DHT22;10524;48.132;8.518;2023-02-24T01:32:06;-0.20;99.90
20726;DHT22;10524;48.132;8.518;2023-02-24T01:34:32;-0.30;99.90
20726;DHT22;10524;48.132;8.518;2023-02-24T01:36:59;-0.30;99.90
20726;DHT22;10524;48.132;8.518;2023-02-24T01:39:24;-0.30;99.90
20726;DHT22;10524;48.132;8.518;2023-02-24T01:41:50;-0.30;99.90
20726;DHT22;10524;48.132;8.518;2023-02-24T01:46:45;-0.50;99.90
20726;DHT22;10524;48.132;8.518;2023-02-24T01:51:56;-0.80;99.90
20726;DHT22;10524;48.132;8.518;2023-02-24T01:54:29;-0.90;99.90
20726;DHT22;10524;48.132;8.518;2023-02-24T01:56:55;-1.00;99.90
20726;DHT22;10524;48.132;8.518;2023-02-24T01:59:25;-1.10;99.90
20726;DHT22;10524;48.132;8.518;2023-02-24T02:01:55;-1.00;99.90
20726;DHT22;10524;48.132;8.518;2023-02-24T02:04:48;-0.90;99.90
20726;DHT22;10524;48.132;8.518;2023-02-24T02:07:15;-0.80;99.90
20726;DHT22;10524;48.132;8.518;2023-02-24T02:09:43;-0.80;99.90
20726;DHT22;10524;48.132;8.518;2023-02-24T02:12:10;-0.80;99.90
20726;DHT22;10524;48.132;8.518;2023-02-24T02:14:38;-0.80;99.90
20726;DHT22;10524;48.132;8.518;2023-02-24T02:26:08;-0.20;99.90
20726;DHT22;10524;48.132;8.518;2023-02-24T02:40:11;-0.60;99.90
20726;DHT22;10524;48.132;8.518;2023-02-24T02:42:57;-0.60;99.90
20726;DHT22;10524;48.132;8.518;2023-02-24T02:45:37;-0.60;99.90
20726;DHT22;10524;48.132;8.518;2023-02-24T02:58:42;-0.50;99.90
20726;DHT22;10524;48.132;8.518;2023-02-24T03:01:13;-0.60;99.90
20726;DHT22;10524;48.132;8.518;2023-02-24T03:03:44;-0.60;99.90
20726;DHT22;10524;48.132;8.518;2023-02-24T03:09:20;-0.70;99.90
20726;DHT22;10524;48.132;8.518;2023-02-24T03:11:54;-0.70;99.90
20726;DHT22;10524;48.132;8.518;2023-02-24T03:14:28;-0.70;99.90
20726;DHT22;10524;48.132;8.518;2023-02-24T03:16:58;-0.70;99.90
20726;DHT22;10524;48.132;8.518;2023-02-24T03:19:32;-0.60;99.90
20726;DHT22;10524;48.132;8.518;2023-02-24T03:22:18;-0.50;99.90
20726;DHT22;10524;48.132;8.518;2023-02-24T03:24:46;-0.60;99.90
20726;DHT22;10524;48.132;8.518;2023-02-24T03:27:16;-0.80;99.90
20726;DHT22;10524;48.132;8.518;2023-02-24T03:29:49;-0.90;99.90
20726;DHT22;10524;48.132;8.518;2023-02-24T03:35:18;-1.00;99.90
20726;DHT22;10524;48.132;8.518;2023-02-24T03:37:46;-1.00;99.90
20726;DHT22;10524;48.132;8.518;2023-02-24T03:40:15;-1.00;99.90
20726;DHT22;10524;48.132;8.518;2023-02-24T03:42:47;-1.10;99.90
20726;DHT22;10524;48.132;8.518;2023-02-24T03:45:16;-1.10;99.90
20726;DHT22;10524;48.132;8.518;2023-02-24T03:47:42;-1.20;99.90
20726;DHT22;10524;48.132;8.518;2023-02-24T03:50:17;-1.20;99.90
20726;DHT22;10524;48.132;8.518;2023-02-24T03:58:17;-1.30;99.90
20726;DHT22;10524;48.132;8.518;2023-02-24T04:03:55;-1.00;99.90
20726;DHT22;10524;48.132;8.518;2023-02-24T04:09:33;-0.70;99.90
20726;DHT22;10524;48.132;8.518;2023-02-24T04:17:25;-0.60;99.90
20726;DHT22;10524;48.132;8.518;2023-02-24T04:19:58;-0.50;99.90
20726;DHT22;10524;48.132;8.518;2023-02-24T04:22:26;-0.50;99.90
20726;DHT22;10524;48.132;8.518;2023-02-24T04:24:56;-0.40;99.90
20726;DHT22;10524;48.132;8.518;2023-02-24T04:27:25;-0.30;99.90
20726;DHT22;10524;48.132;8.518;2023-02-24T04:29:55;-0.20;99.90
20726;DHT22;10524;48.132;8.518;2023-02-24T04:32:27;-0.10;99.90
20726;DHT22;10524;48.132;8.518;2023-02-24T04:35:04;0.00;99.90
20726;DHT22;10524;48.132;8.518;2023-02-24T04:37:32;0.10;99.90
20726;DHT22;10524;48.132;8.518;2023-02-24T04:40:01;0.10;99.90
20726;DHT22;10524;48.132;8.518;2023-02-24T04:42:35;0.20;99.90
20726;DHT22;10524;48.132;8.518;2023-02-24T04:45:00;0.20;99.90
20726;DHT22;10524;48.132;8.518;2023-02-24T04:47:26;0.20;99.90
20726;DHT22;10524;48.132;8.518;2023-02-24T04:49:53;0.20;99.90
20726;DHT22;10524;48.132;8.518;2023-02-24T04:52:19;0.20;99.90
20726;DHT22;10524;48.132;8.518;2023-02-24T04:54:45;0.10;99.90
20726;DHT22;10524;48.132;8.518;2023-02-24T04:57:12;0.00;99.90
20726;DHT22;10524;48.132;8.518;2023-02-24T04:59:38;-0.10;99.90
20726;DHT22;10524;48.132;8.518;2023-02-24T05:02:05;-0.20;99.90
20726;DHT22;10524;48.132;8.518;2023-02-24T05:04:34;-0.40;99.90
20726;DHT22;10524;48.132;8.518;2023-02-24T05:07:03;-0.50;99.90
20726;DHT22;10524;48.132;8.518;2023-02-24T05:09:29;-0.70;99.90
20726;DHT22;10524;48.132;8.518;2023-02-24T05:11:58;-0.80;99.90
20726;DHT22;10524;48.132;8.518;2023-02-24T05:14:24;-0.60;99.90
20726;DHT22;10524;48.132;8.518;2023-02-24T05:16:50;-0.60;99.90
20726;DHT22;10524;48.132;8.518;2023-02-24T05:19:18;-0.60;99.90
20726;DHT22;10524;48.132;8.518;2023-02-24T05:22:03;-0.60;99.90
20726;DHT22;10524;48.132;8.518;2023-02-24T05:24:31;-0.70;99.90
20726;DHT22;10524;48.132;8.518;2023-02-24T05:26:57;-0.70;99.90
20726;DHT22;10524;48.132;8.518;2023-02-24T05:29:28;-0.70;99.90
20726;DHT22;10524;48.132;8.518;2023-02-24T05:31:55;-0.70;99.90
20726;DHT22;10524;48.132;8.518;2023-02-24T05:34:25;-0.70;99.90
20726;DHT22;10524;48.132;8.518;2023-02-24T05:36:51;-0.70;99.90
20726;DHT22;10524;48.132;8.518;2023-02-24T05:39:18;-0.60;99.90
20726;DHT22;10524;48.132;8.518;2023-02-24T05:41:45;-0.60;99.90
20726;DHT22;10524;48.132;8.518;2023-02-24T05:44:23;-0.60;99.90
20726;DHT22;10524;48.132;8.518;2023-02-24T05:46:54;-0.70;99.90
20726;DHT22;10524;48.132;8.518;2023-02-24T05:49:26;-0.70;99.90
20726;DHT22;10524;48.132;8.518;2023-02-24T05:51:56;-0.60;99.90
20726;DHT22;10524;48.132;8.518;2023-02-24T05:57:01;-0.90;99.90
20726;DHT22;10524;48.132;8.518;2023-02-24T05:59:29;-1.00;99.90
20726;DHT22;10524;48.132;8.518;2023-02-24T06:01:58;-1.00;99.90
20726;DHT22;10524;48.132;8.518;2023-02-24T06:04:25;-0.90;99.90
20726;DHT22;10524;48.132;8.518;2023-02-24T06:07:15;-0.80;99.90
20726;DHT22;10524;48.132;8.518;2023-02-24T06:09:48;-0.50;99.90
20726;DHT22;10524;48.132;8.518;2023-02-24T06:12:19;-0.40;99.90
20726;DHT22;10524;48.132;8.518;2023-02-24T06:14:45;-0.20;99.90
20726;DHT22;10524;48.132;8.518;2023-02-24T06:17:12;-0.10;99.90
20726;DHT22;10524;48.132;8.518;2023-02-24T06:19:39;0.00;99.90
20726;DHT22;10524;48.132;8.518;2023-02-24T06:22:05;0.00;99.90
20726;DHT22;10524;48.132;8.518;2023-02-24T06:24:35;0.00;99.90
20726;DHT22;10524;48.132;8.518;2023-02-24T06:27:04;0.10;99.90
20726;DHT22;10524;48.132;8.518;2023-02-24T06:29:36;0.20;99.90
20726;DHT22;10524;48.132;8.518;2023-02-24T06:32:02;0.20;99.90
20726;DHT22;10524;48.132;8.518;2023-02-24T06:34:35;0.20;99.90
20726;DHT22;10524;48.132;8.518;2023-02-24T06:37:02;0.20;99.90
20726;DHT22;10524;48.132;8.518;2023-02-24T06:39:31;0.20;99.90
20726;DHT22;10524;48.132;8.518;2023-02-24T06:41:59;0.20;99.90
20726;DHT22;10524;48.132;8.518;2023-02-24T06:44:34;0.20;99.90
20726;DHT22;10524;48.132;8.518;2023-02-24T06:47:01;0.30;99.90
20726;DHT22;10524;48.132;8.518;2023-02-24T06:49:27;0.30;99.90
20726;DHT22;10524;48.132;8.518;2023-02-24T06:51:53;0.40;99.90
20726;DHT22;10524;48.132;8.518;2023-02-24T06:54:20;0.50;99.90
20726;DHT22;10524;48.132;8.518;2023-02-24T06:56:47;0.60;99.90
20726;DHT22;10524;48.132;8.518;2023-02-24T06:59:13;0.70;99.90
20726;DHT22;10524;48.132;8.518;2023-02-24T07:01:46;0.80;99.90
20726;DHT22;10524;48.132;8.518;2023-02-24T07:04:13;0.90;99.90
20726;DHT22;10524;48.132;8.518;2023-02-24T07:06:41;1.00;99.90
20726;DHT22;10524;48.132;8.518;2023-02-24T07:09:12;0.90;99.90
20726;DHT22;10524;48.132;8.518;2023-02-24T07:11:40;0.80;99.90
20726;DHT22;10524;48.132;8.518;2023-02-24T07:14:07;0.80;99.90
20726;DHT22;10524;48.132;8.518;2023-02-24T07:16:34;1.10;99.90
20726;DHT22;10524;48.132;8.518;2023-02-24T07:19:05;1.30;99.90
20726;DHT22;10524;48.132;8.518;2023-02-24T07:21:36;1.50;99.90
20726;DHT22;10524;48.132;8.518;2023-02-24T07:24:12;1.60;99.90
20726;DHT22;10524;48.132;8.518;2023-02-24T07:26:41;1.60;99.90
20726;DHT22;10524;48.132;8.518;2023-02-24T07:29:11;1.70;99.90
20726;DHT22;10524;48.132;8.518;2023-02-24T07:31:37;1.70;99.90
20726;DHT22;10524;48.132;8.518;2023-02-24T07:34:04;1.80;99.90
20726;DHT22;10524;48.132;8.518;2023-02-24T07:36:31;1.90;99.90
20726;DHT22;10524;48.132;8.518;2023-02-24T07:39:04;1.90;99.90
20726;DHT22;10524;48.132;8.518;2023-02-24T07:41:32;1.90;99.90
20726;DHT22;10524;48.132;8.518;2023-02-24T07:43:58;1.90;99.90
20726;DHT22;10524;48.132;8.518;2023-02-24T07:46:27;1.80;99.90
20726;DHT22;10524;48.132;8.518;2023-02-24T07:48:54;1.90;99.90
20726;DHT22;10524;48.132;8.518;2023-02-24T07:51:23;1.90;99.90
20726;DHT22;10524;48.132;8.518;2023-02-24T07:53:54;1.80;99.90
20726;DHT22;10524;48.132;8.518;2023-02-24T07:56:22;1.80;99.90
20726;DHT22;10524;48.132;8.518;2023-02-24T07:58:52;2.00;99.90
20726;DHT22;10524;48.132;8.518;2023-02-24T08:01:24;2.10;99.90
20726;DHT22;10524;48.132;8.518;2023-02-24T08:03:54;2.20;99.90
20726;DHT22;10524;48.132;8.518;2023-02-24T08:06:24;2.40;99.90
20726;DHT22;10524;48.132;8.518;2023-02-24T08:09:03;2.40;99.90
20726;DHT22;10524;48.132;8.518;2023-02-24T08:11:56;2.60;99.90
20726;DHT22;10524;48.132;8.518;2023-02-24T08:14:27;2.90;99.90
20726;DHT22;10524;48.132;8.518;2023-02-24T08:16:57;3.00;99.90
20726;DHT22;10524;48.132;8.518;2023-02-24T08:19:25;3.20;99.90
20726;DHT22;10524;48.132;8.518;2023-02-24T08:22:01;3.60;99.90
20726;DHT22;10524;48.132;8.518;2023-02-24T08:24:49;4.00;99.90
20726;DHT22;10524;48.132;8.518;2023-02-24T08:27:21;4.50;99.90
20726;DHT22;10524;48.132;8.518;2023-02-24T08:29:51;4.60;99.90
20726;DHT22;10524;48.132;8.518;2023-02-24T08:35:08;5.40;99.90
20726;DHT22;10524;48.132;8.518;2023-02-24T08:37:59;5.90;99.90
20726;DHT22;10524;48.132;8.518;2023-02-24T08:40:34;6.40;99.90
20726;DHT22;10524;48.132;8.518;2023-02-24T08:43:08;7.00;99.90
20726;DHT22;10524;48.132;8.518;2023-02-24T08:48:21;7.70;99.90
20726;DHT22;10524;48.132;8.518;2023-02-24T08:50:58;7.40;99.90
20726;DHT22;10524;48.132;8.518;2023-02-24T08:53:25;7.00;99.90
20726;DHT22;10524;48.132;8.518;2023-02-24T08:55:57;6.70;99.90
20726;DHT22;10524;48.132;8.518;2023-02-24T08:58:23;6.40;99.90
20726;DHT22;10524;48.132;8.518;2023-02-24T09:00:54;6.40;99.90
20726;DHT22;10524;48.132;8.518;2023-02-24T09:03:23;6.20;99.90
20726;DHT22;10524;48.132;8.518;2023-02-24T09:06:04;6.60;99.90
20726;DHT22;10524;48.132;8.518;2023-02-24T09:08:35;6.50;99.90
20726;DHT22;10524;48.132;8.518;2023-02-24T09:11:04;6.00;99.90
20726;DHT22;10524;48.132;8.518;2023-02-24T09:13:41;6.00;99.90
20726;DHT22;10524;48.132;8.518;2023-02-24T09:16:19;6.10;99.90
20726;DHT22;10524;48.132;8.518;2023-02-24T09:18:48;6.70;99.90
20726;DHT22;10524;48.132;8.518;2023-02-24T09:21:35;7.30;99.90
20726;DHT22;10524;48.132;8.518;2023-02-24T09:24:14;7.60;99.90
20726;DHT22;10524;48.132;8.518;2023-02-24T09:26:54;8.00;99.90
20726;DHT22;10524;48.132;8.518;2023-02-24T09:29:24;8.20;99.90
20726;DHT22;10524;48.132;8.518;2023-02-24T09:32:03;8.20;99.90
20726;DHT22;10524;48.132;8.518;2023-02-24T09:34:37;8.70;99.90
20726;DHT22;10524;48.132;8.518;2023-02-24T09:37:09;9.10;99.90
20726;DHT22;10524;48.132;8.518;2023-02-24T09:39:52;9.30;99.90
20726;DHT22;10524;48.132;8.518;2023-02-24T09:42:27;9.20;99.90
20726;DHT22;10524;48.132;8.518;2023-02-24T09:45:02;8.60;99.90
20726;DHT22;10524;48.132;8.518;2023-02-24T09:47:55;8.50;99.90
20726;DHT22;10524;48.132;8.518;2023-02-24T09:52:54;8.30;99.90
20726;DHT22;10524;48.132;8.518;2023-02-24T10:01:46;8.90;99.90
20726;DHT22;10524;48.132;8.518;2023-02-24T10:09:36;10.20;99.90
20726;DHT22;10524;48.132;8.518;2023-02-24T10:12:12;11.10;99.90
20726;DHT22;10524;48.132;8.518;2023-02-24T10:14:48;12.50;99.90
20726;DHT22;10524;48.132;8.518;2023-02-24T10:17:23;14.30;99.90
20726;DHT22;10524;48.132;8.518;2023-02-24T10:22:56;14.20;99.90
20726;DHT22;10524;48.132;8.518;2023-02-24T10:25:48;17.30;99.90
20726;DHT22;10524;48.132;8.518;2023-02-24T10:33:40;19.30;99.90
20726;DHT22;10524;48.132;8.518;2023-02-24T10:36:29;18.10;99.90
20726;DHT22;10524;48.132;8.518;2023-02-24T10:39:14;17.80;99.90
20726;DHT22;10524;48.132;8.518;2023-02-24T10:42:00;18.40;99.90
20726;DHT22;10524;48.132;8.518;2023-02-24T10:44:44;20.20;99.90
20726;DHT22;10524;48.132;8.518;2023-02-24T10:47:24;20.80;99.90
20726;DHT22;10524;48.132;8.518;2023-02-24T10:49:58;19.20;99.90
20726;DHT22;10524;48.132;8.518;2023-02-24T10:52:37;17.60;99.90
20726;DHT22;10524;48.132;8.518;2023-02-24T10:55:49;15.70;99.90
20726;DHT22;10524;48.132;8.518;2023-02-24T10:58:36;15.40;99.90
20726;DHT22;10524;48.132;8.518;2023-02-24T11:01:28;18.20;99.90
20726;DHT22;10524;48.132;8.518;2023-02-24T11:04:35;21.10;99.90
20726;DHT22;10524;48.132;8.518;2023-02-24T11:07:20;20.90;99.90
20726;DHT22;10524;48.132;8.518;2023-02-24T11:10:04;20.20;99.90
20726;DHT22;10524;48.132;8.518;2023-02-24T11:12:44;17.50;99.90
20726;DHT22;10524;48.132;8.518;2023-02-24T11:18:29;14.50;99.90
20726;DHT22;10524;48.132;8.518;2023-02-24T11:23:27;12.50;99.90
20726;DHT22;10524;48.132;8.518;2023-02-24T11:26:17;11.90;99.90
20726;DHT22;10524;48.132;8.518;2023-02-24T11:29:02;11.80;99.90
20726;DHT22;10524;48.132;8.518;2023-02-24T11:39:59;19.70;99.90
20726;DHT22;10524;48.132;8.518;2023-02-24T11:42:36;20.00;99.90
20726;DHT22;10524;48.132;8.518;2023-02-24T11:45:28;20.10;99.90
20726;DHT22;10524;48.132;8.518;2023-02-24T11:47:57;18.00;99.90
20726;DHT22;10524;48.132;8.518;2023-02-24T11:50:37;16.30;99.90
20726;DHT22;10524;48.132;8.518;2023-02-24T11:53:26;15.10;99.90
20726;DHT22;10524;48.132;8.518;2023-02-24T11:55:59;14.10;99.90
20726;DHT22;10524;48.132;8.518;2023-02-24T11:58:31;13.10;99.90
20726;DHT22;10524;48.132;8.518;2023-02-24T12:01:07;12.50;99.90
20726;DHT22;10524;48.132;8.518;2023-02-24T12:04:24;11.90;99.90
20726;DHT22;10524;48.132;8.518;2023-02-24T12:06:37;11.70;99.90
20726;DHT22;10524;48.132;8.518;2023-02-24T12:09:20;11.90;99.90
20726;DHT22;10524;48.132;8.518;2023-02-24T12:12:08;11.80;99.90
20726;DHT22;10524;48.132;8.518;2023-02-24T12:14:40;11.80;99.90
20726;DHT22;10524;48.132;8.518;2023-02-24T12:17:14;12.10;99.90
20726;DHT22;10524;48.132;8.518;2023-02-24T12:22:29;13.10;99.90
20726;DHT22;10524;48.132;8.518;2023-02-24T12:24:57;14.10;99.90
20726;DHT22;10524;48.132;8.518;2023-02-24T12:27:56;13.90;99.90
20726;DHT22;10524;48.132;8.518;2023-02-24T12:30:51;13.00;99.90
20726;DHT22;10524;48.132;8.518;2023-02-24T12:33:54;12.00;99.90
20726;DHT22;10524;48.132;8.518;2023-02-24T12:36:42;11.70;99.90
20726;DHT22;10524;48.132;8.518;2023-02-24T12:39:32;12.20;99.90
20726;DHT22;10524;48.132;8.518;2023-02-24T12:42:27;13.80;99.90
20726;DHT22;10524;48.132;8.518;2023-02-24T12:47:42;14.20;99.90
20726;DHT22;10524;48.132;8.518;2023-02-24T12:50:30;14.90;99.90
20726;DHT22;10524;48.132;8.518;2023-02-24T12:58:32;14.50;99.90
20726;DHT22;10524;48.132;8.518;2023-02-24T13:08:57;13.50;99.90
20726;DHT22;10524;48.132;8.518;2023-02-24T13:11:41;13.90;99.90
20726;DHT22;10524;48.132;8.518;2023-02-24T13:14:26;14.70;99.90
20726;DHT22;10524;48.132;8.518;2023-02-24T13:17:23;15.50;99.90
20726;DHT22;10524;48.132;8.518;2023-02-24T13:19:52;15.00;99.90
20726;DHT22;10524;48.132;8.518;2023-02-24T13:22:22;14.40;99.90
20726;DHT22;10524;48.132;8.518;2023-02-24T13:27:41;13.60;99.90
20726;DHT22;10524;48.132;8.518;2023-02-24T13:32:45;13.30;99.90
20726;DHT22;10524;48.132;8.518;2023-02-24T13:37:40;12.60;99.90
20726;DHT22;10524;48.132;8.518;2023-02-24T13:40:32;12.50;99.90
20726;DHT22;10524;48.132;8.518;2023-02-24T13:43:00;12.30;99.90
20726;DHT22;10524;48.132;8.518;2023-02-24T13:45:34;12.20;99.90
20726;DHT22;10524;48.132;8.518;2023-02-24T13:48:36;12.20;99.90
20726;DHT22;10524;48.132;8.518;2023-02-24T14:02:59;11.20;99.90
20726;DHT22;10524;48.132;8.518;2023-02-24T14:05:43;11.30;99.90
20726;DHT22;10524;48.132;8.518;2023-02-24T14:08:42;11.20;99.90
20726;DHT22;10524;48.132;8.518;2023-02-24T14:11:13;11.10;99.90
20726;DHT22;10524;48.132;8.518;2023-02-24T14:13:44;11.20;99.90
20726;DHT22;10524;48.132;8.518;2023-02-24T14:16:13;11.20;99.90
20726;DHT22;10524;48.132;8.518;2023-02-24T14:18:42;11.20;99.90
20726;DHT22;10524;48.132;8.518;2023-02-24T14:21:21;11.20;99.90
20726;DHT22;10524;48.132;8.518;2023-02-24T14:23:57;11.30;99.90
20726;DHT22;10524;48.132;8.518;2023-02-24T14:26:24;11.40;99.90
20726;DHT22;10524;48.132;8.518;2023-02-24T14:28:57;11.60;99.90
20726;DHT22;10524;48.132;8.518;2023-02-24T14:31:25;11.90;99.90
20726;DHT22;10524;48.132;8.518;2023-02-24T14:33:58;11.90;99.90
20726;DHT22;10524;48.132;8.518;2023-02-24T14:36:27;11.80;99.90
20726;DHT22;10524;48.132;8.518;2023-02-24T14:39:14;11.80;99.90
20726;DHT22;10524;48.132;8.518;2023-02-24T14:41:41;11.80;99.90
20726;DHT22;10524;48.132;8.518;2023-02-24T14:44:26;11.60;99.90
20726;DHT22;10524;48.132;8.518;2023-02-24T14:46:57;11.60;99.90
20726;DHT22;10524;48.132;8.518;2023-02-24T14:49:27;11.40;99.90
20726;DHT22;10524;48.132;8.518;2023-02-24T14:52:09;11.30;99.90
20726;DHT22;10524;48.132;8.518;2023-02-24T14:54:48;11.30;99.90
20726;DHT22;10524;48.132;8.518;2023-02-24T14:57:39;11.40;99.90
20726;DHT22;10524;48.132;8.518;2023-02-24T15:00:12;11.60;99.90
20726;DHT22;10524;48.132;8.518;2023-02-24T15:05:39;11.30;99.90
20726;DHT22;10524;48.132;8.518;2023-02-24T15:08:25;11.30;99.90
20726;DHT22;10524;48.132;8.518;2023-02-24T15:10:51;11.40;99.90
20726;DHT22;10524;48.132;8.518;2023-02-24T15:18:37;11.90;99.90
20726;DHT22;10524;48.132;8.518;2023-02-24T15:21:06;11.70;99.90
20726;DHT22;10524;48.132;8.518;2023-02-24T15:23:42;11.50;99.90
20726;DHT22;10524;48.132;8.518;2023-02-24T15:26:24;11.40;99.90
20726;DHT22;10524;48.132;8.518;2023-02-24T15:28:57;11.40;99.90
20726;DHT22;10524;48.132;8.518;2023-02-24T15:31:23;11.70;99.90
20726;DHT22;10524;48.132;8.518;2023-02-24T15:33:59;11.90;99.90
20726;DHT22;10524;48.132;8.518;2023-02-24T15:36:30;12.10;99.90
20726;DHT22;10524;48.132;8.518;2023-02-24T15:39:03;12.10;99.90
20726;DHT22;10524;48.132;8.518;2023-02-24T15:41:44;11.60;99.90
20726;DHT22;10524;48.132;8.518;2023-02-24T15:44:30;11.40;99.90
20726;DHT22;10524;48.132;8.518;2023-02-24T15:46:57;11.00;99.90
20726;DHT22;10524;48.132;8.518;2023-02-24T15:49:23;10.70;99.90
20726;DHT22;10524;48.132;8.518;2023-02-24T15:51:53;10.60;99.90
20726;DHT22;10524;48.132;8.518;2023-02-24T15:54:28;10.40;99.90
20726;DHT22;10524;48.132;8.518;2023-02-24T15:56:56;10.20;99.90
20726;DHT22;10524;48.132;8.518;2023-02-24T15:59:22;10.10;99.90
20726;DHT22;10524;48.132;8.518;2023-02-24T16:01:48;10.10;99.90
20726;DHT22;10524;48.132;8.518;2023-02-24T16:04:16;9.90;99.90
20726;DHT22;10524;48.132;8.518;2023-02-24T16:06:43;9.80;99.90
20726;DHT22;10524;48.132;8.518;2023-02-24T16:09:31;9.60;99.90
20726;DHT22;10524;48.132;8.518;2023-02-24T16:12:06;9.50;99.90
20726;DHT22;10524;48.132;8.518;2023-02-24T16:14:33;9.40;99.90
20726;DHT22;10524;48.132;8.518;2023-02-24T16:17:02;9.30;99.90
20726;DHT22;10524;48.132;8.518;2023-02-24T16:19:28;9.10;99.90
20726;DHT22;10524;48.132;8.518;2023-02-24T16:21:53;9.00;99.90
20726;DHT22;10524;48.132;8.518;2023-02-24T16:24:19;9.00;99.90
20726;DHT22;10524;48.132;8.518;2023-02-24T16:26:45;8.90;99.90
20726;DHT22;10524;48.132;8.518;2023-02-24T16:29:14;8.90;99.90
20726;DHT22;10524;48.132;8.518;2023-02-24T16:31:40;8.80;99.90
20726;DHT22;10524;48.132;8.518;2023-02-24T16:34:06;8.70;99.90
20726;DHT22;10524;48.132;8.518;2023-02-24T16:36:32;8.50;99.90
20726;DHT22;10524;48.132;8.518;2023-02-24T16:38:59;8.30;99.90
20726;DHT22;10524;48.132;8.518;2023-02-24T16:41:25;8.10;99.90
20726;DHT22;10524;48.132;8.518;2023-02-24T16:43:51;7.80;99.90
20726;DHT22;10524;48.132;8.518;2023-02-24T16:46:19;7.70;99.90
20726;DHT22;10524;48.132;8.518;2023-02-24T16:48:48;7.50;99.90
20726;DHT22;10524;48.132;8.518;2023-02-24T16:51:18;7.50;99.90
20726;DHT22;10524;48.132;8.518;2023-02-24T16:53:44;7.40;99.90
20726;DHT22;10524;48.132;8.518;2023-02-24T16:56:10;7.40;99.90
20726;DHT22;10524;48.132;8.518;2023-02-24T16:58:37;7.40;99.90
20726;DHT22;10524;48.132;8.518;2023-02-24T17:01:03;7.30;99.90
20726;DHT22;10524;48.132;8.518;2023-02-24T17:03:40;7.30;99.90
20726;DHT22;10524;48.132;8.518;2023-02-24T17:06:06;7.30;99.90
20726;DHT22;10524;48.132;8.518;2023-02-24T17:08:31;7.20;99.90
20726;DHT22;10524;48.132;8.518;2023-02-24T17:10:57;7.20;99.90
20726;DHT22;10524;48.132;8.518;2023-02-24T17:13:22;7.20;99.90
20726;DHT22;10524;48.132;8.518;2023-02-24T17:15:52;7.20;99.90
20726;DHT22;10524;48.132;8.518;2023-02-24T17:18:25;7.20;99.90
20726;DHT22;10524;48.132;8.518;2023-02-24T17:20:51;7.20;99.90
20726;DHT22;10524;48.132;8.518;2023-02-24T17:23:17;7.20;99.90
20726;DHT22;10524;48.132;8.518;2023-02-24T17:25:44;7.20;99.90
20726;DHT22;10524;48.132;8.518;2023-02-24T17:28:11;7.20;99.90
20726;DHT22;10524;48.132;8.518;2023-02-24T17:30:36;7.20;99.90
20726;DHT22;10524;48.132;8.518;2023-02-24T17:33:03;7.20;99.90
20726;DHT22;10524;48.132;8.518;2023-02-24T17:35:29;7.20;99.90
20726;DHT22;10524;48.132;8.518;2023-02-24T17:37:55;7.20;99.90
20726;DHT22;10524;48.132;8.518;2023-02-24T17:40:21;7.20;99.90
20726;DHT22;10524;48.132;8.518;2023-02-24T17:42:47;7.20;99.90
20726;DHT22;10524;48.132;8.518;2023-02-24T17:45:13;7.20;99.90
20726;DHT22;10524;48.132;8.518;2023-02-24T17:47:39;7.20;99.90
20726;DHT22;10524;48.132;8.518;2023-02-24T17:50:06;7.20;99.90
20726;DHT22;10524;48.132;8.518;2023-02-24T17:52:32;7.10;99.90
20726;DHT22;10524;48.132;8.518;2023-02-24T17:54:58;7.10;99.90
20726;DHT22;10524;48.132;8.518;2023-02-24T17:57:25;7.00;99.90
20726;DHT22;10524;48.132;8.518;2023-02-24T17:59:51;7.00;99.90
20726;DHT22;10524;48.132;8.518;2023-02-24T18:02:17;6.90;99.90
20726;DHT22;10524;48.132;8.518;2023-02-24T18:04:43;6.90;99.90
20726;DHT22;10524;48.132;8.518;2023-02-24T18:07:09;7.00;99.90
20726;DHT22;10524;48.132;8.518;2023-02-24T18:09:35;7.00;99.90
20726;DHT22;10524;48.132;8.518;2023-02-24T18:12:01;6.90;99.90
20726;DHT22;10524;48.132;8.518;2023-02-24T18:14:27;6.80;99.90
20726;DHT22;10524;48.132;8.518;2023-02-24T18:16:53;6.80;99.90
20726;DHT22;10524;48.132;8.518;2023-02-24T18:19:18;6.70;99.90
20726;DHT22;10524;48.132;8.518;2023-02-24T18:21:44;6.70;99.90
20726;DHT22;10524;48.132;8.518;2023-02-24T18:24:10;6.60;99.90
20726;DHT22;10524;48.132;8.518;2023-02-24T18:26:36;6.60;99.90
20726;DHT22;10524;48.132;8.518;2023-02-24T18:29:02;6.50;99.90
20726;DHT22;10524;48.132;8.518;2023-02-24T18:31:29;6.50;99.90
20726;DHT22;10524;48.132;8.518;2023-02-24T18:33:56;6.50;99.90
20726;DHT22;10524;48.132;8.518;2023-02-24T18:36:22;6.50;99.90
20726;DHT22;10524;48.132;8.518;2023-02-24T18:38:48;6.50;99.90
20726;DHT22;10524;48.132;8.518;2023-02-24T18:41:16;6.50;99.90